createdAt,value
2023-05-22T00:02:08.032Z,13.85
2023-05-22T00:04:34.744Z,14.38
2023-05-22T00:07:01.530Z,14.88
2023-05-22T00:09:28.143Z,14.75
2023-05-22T00:11:55.010Z,14.50
2023-05-22T00:14:21.803Z,15.13
2023-05-22T00:16:48.579Z,14.23
2023-05-22T00:19:16.583Z,15.77
2023-05-22T00:21:44.215Z,15.48
2023-05-22T00:24:11.240Z,15.18
2023-05-22T00:26:38.137Z,14.85
2023-05-22T00:29:05.984Z,15.63
2023-05-22T00:31:33.751Z,14.65
2023-05-22T00:34:03.534Z,15.52
2023-05-22T00:36:30.334Z,15.57
2023-05-22T00:38:57.035Z,15.95
2023-05-22T00:41:27.325Z,16.13
2023-05-22T00:43:54.710Z,16.20
2023-05-22T00:46:22.708Z,16.42
2023-05-22T00:48:49.594Z,15.65
2023-05-22T00:51:16.344Z,15.73
2023-05-22T00:53:44.236Z,14.85
2023-05-22T00:56:11.236Z,15.40
2023-05-22T00:58:37.913Z,15.27
2023-05-22T01:01:07.650Z,15.02
2023-05-22T01:03:44.729Z,14.35
2023-05-22T01:06:13.292Z,15.38
2023-05-22T01:08:41.246Z,14.50
2023-05-22T01:11:22.216Z,15.35
2023-05-22T01:14:11.954Z,14.20
2023-05-22T01:16:59.705Z,13.95
2023-05-22T01:20:01.462Z,14.95
2023-05-22T01:23:10.757Z,14.95
2023-05-22T01:26:15.749Z,15.60
2023-05-22T01:29:01.346Z,15.80
2023-05-22T01:33:59.037Z,15.43
2023-05-22T01:36:31.027Z,15.77
2023-05-22T01:39:01.256Z,15.70
2023-05-22T01:41:29.847Z,15.05
2023-05-22T01:43:57.261Z,14.60
2023-05-22T01:46:28.945Z,14.20
2023-05-22T01:48:56.097Z,15.57
2023-05-22T01:51:34.519Z,14.80
2023-05-22T01:54:20.019Z,16.13
2023-05-22T01:59:23.324Z,15.07
2023-05-22T02:01:52.802Z,15.95
2023-05-22T02:04:21.537Z,15.90
2023-05-22T02:06:51.535Z,16.90
2023-05-22T02:09:19.480Z,17.60
2023-05-22T02:11:47.770Z,15.45
2023-05-22T02:14:16.090Z,16.75
2023-05-22T02:16:47.850Z,16.05
2023-05-22T02:19:15.337Z,17.00
2023-05-22T02:21:42.211Z,16.55
2023-05-22T02:24:09.187Z,16.27
2023-05-22T02:26:35.877Z,16.00
2023-05-22T02:29:02.568Z,16.00
2023-05-22T02:31:29.549Z,16.20
2023-05-22T02:33:56.455Z,16.15
2023-05-22T02:36:23.193Z,16.30
2023-05-22T02:38:49.967Z,17.08
2023-05-22T02:41:18.479Z,16.00
2023-05-22T02:43:45.225Z,16.40
2023-05-22T02:46:11.849Z,16.30
2023-05-22T02:48:38.559Z,15.70
2023-05-22T02:51:05.247Z,15.93
2023-05-22T02:53:35.162Z,17.02
2023-05-22T02:56:03.008Z,15.60
2023-05-22T02:58:29.946Z,15.50
2023-05-22T03:00:56.978Z,16.27
2023-05-22T03:03:24.983Z,16.02
2023-05-22T03:05:58.326Z,16.83
2023-05-22T03:08:28.233Z,17.17
2023-05-22T03:10:56.673Z,16.13
2023-05-22T03:13:23.389Z,16.25
2023-05-22T03:15:50.190Z,15.57
2023-05-22T03:18:17.380Z,16.67
2023-05-22T03:20:44.240Z,15.90
2023-05-22T03:23:11.882Z,17.38
2023-05-22T03:25:38.866Z,16.83
2023-05-22T03:28:06.063Z,17.00
2023-05-22T03:30:33.246Z,17.20
2023-05-22T03:33:00.175Z,17.17
2023-05-22T03:35:27.064Z,17.02
2023-05-22T03:37:53.860Z,17.75
2023-05-22T03:40:20.666Z,17.35
2023-05-22T03:42:47.394Z,17.40
2023-05-22T03:45:14.100Z,17.58
2023-05-22T03:47:41.151Z,16.30
2023-05-22T03:50:08.349Z,17.75
2023-05-22T03:52:35.002Z,16.67
2023-05-22T03:55:01.927Z,16.48
2023-05-22T03:57:28.719Z,16.15
2023-05-22T03:59:55.407Z,16.90
2023-05-22T04:02:22.162Z,17.95
2023-05-22T04:04:49.052Z,18.33
2023-05-22T04:07:18.466Z,16.63
2023-05-22T04:09:45.328Z,17.55
2023-05-22T04:12:11.996Z,15.95
2023-05-22T04:14:38.748Z,17.40
2023-05-22T04:17:05.493Z,17.85
2023-05-22T04:19:32.290Z,17.55
2023-05-22T04:21:59.206Z,17.63
2023-05-22T04:24:27.499Z,16.25
2023-05-22T04:26:54.229Z,17.73
2023-05-22T04:29:22.750Z,17.27
2023-05-22T04:31:49.519Z,16.95
2023-05-22T04:34:18.208Z,18.05
2023-05-22T04:36:48.059Z,18.38
2023-05-22T04:39:15.134Z,16.88
2023-05-22T04:41:41.775Z,18.15
2023-05-22T04:44:08.585Z,17.70
2023-05-22T04:46:35.806Z,17.85
2023-05-22T04:49:03.366Z,18.88
2023-05-22T04:51:31.347Z,17.20
2023-05-22T04:53:58.633Z,16.50
2023-05-22T04:56:35.528Z,17.70
2023-05-22T04:59:05.768Z,17.25
2023-05-22T05:01:33.503Z,19.08
2023-05-22T05:04:02.463Z,18.58
2023-05-22T05:06:29.287Z,18.52
2023-05-22T05:08:55.977Z,18.23
2023-05-22T05:11:22.760Z,19.38
2023-05-22T05:13:49.410Z,18.58
2023-05-22T05:16:16.232Z,18.52
2023-05-22T05:18:43.829Z,18.02
2023-05-22T05:21:10.950Z,18.65
2023-05-22T05:23:37.849Z,18.27
2023-05-22T05:26:07.913Z,18.27
2023-05-22T05:28:34.619Z,18.85
2023-05-22T05:31:01.731Z,17.50
2023-05-22T05:33:28.438Z,18.23
2023-05-22T05:35:55.462Z,17.33
2023-05-22T05:38:22.608Z,17.77
2023-05-22T05:40:49.332Z,18.80
2023-05-22T05:43:16.017Z,21.80
2023-05-22T05:45:43.603Z,20.73
2023-05-22T05:48:11.785Z,17.38
2023-05-22T05:50:38.794Z,16.63
2023-05-22T05:53:06.207Z,16.90
2023-05-22T05:55:34.652Z,16.70
2023-05-22T05:58:01.438Z,15.02
2023-05-22T06:00:28.157Z,14.68
2023-05-22T06:02:54.946Z,14.20
2023-05-22T06:05:22.941Z,14.93
2023-05-22T06:07:49.865Z,13.55
2023-05-22T06:10:16.583Z,13.18
2023-05-22T06:12:43.483Z,14.57
2023-05-22T06:15:13.149Z,13.52
2023-05-22T06:17:42.974Z,13.90
2023-05-22T06:20:09.999Z,14.25
2023-05-22T06:22:37.522Z,14.27
2023-05-22T06:25:07.661Z,13.48
2023-05-22T06:27:34.374Z,13.80
2023-05-22T06:30:01.896Z,13.95
2023-05-22T06:32:28.800Z,13.55
2023-05-22T06:34:55.753Z,13.60
2023-05-22T06:37:22.427Z,12.50
2023-05-22T06:39:49.051Z,11.93
2023-05-22T06:42:15.828Z,12.48
2023-05-22T06:44:42.544Z,12.52
2023-05-22T06:47:09.726Z,12.27
2023-05-22T06:49:37.352Z,13.27
2023-05-22T06:52:05.468Z,12.55
2023-05-22T06:54:32.252Z,11.68
2023-05-22T06:57:01.018Z,12.52
2023-05-22T06:59:27.716Z,12.13
2023-05-22T07:01:54.472Z,13.20
2023-05-22T07:04:21.143Z,12.45
2023-05-22T07:06:48.479Z,13.07
2023-05-22T07:09:15.600Z,12.02
2023-05-22T07:11:43.809Z,12.25
2023-05-22T07:14:12.521Z,12.40
2023-05-22T07:16:42.598Z,12.68
2023-05-22T07:19:10.530Z,12.60
2023-05-22T07:21:37.561Z,12.13
2023-05-22T07:24:08.299Z,11.43
2023-05-22T07:26:36.198Z,11.68
2023-05-22T07:29:04.000Z,11.77
2023-05-22T07:31:32.050Z,10.27
2023-05-22T07:33:58.757Z,11.45
2023-05-22T07:36:25.483Z,11.68
2023-05-22T07:38:52.137Z,11.65
2023-05-22T07:41:18.800Z,11.45
2023-05-22T07:43:45.650Z,11.15
2023-05-22T07:46:12.409Z,10.80
2023-05-22T07:48:39.203Z,10.80
2023-05-22T07:51:06.088Z,10.80
2023-05-22T07:53:32.835Z,10.68
2023-05-22T07:56:12.204Z,10.82
2023-05-22T07:58:39.881Z,10.30
2023-05-22T08:01:12.967Z,10.63
2023-05-22T08:03:39.893Z,10.95
2023-05-22T08:06:10.078Z,11.20
2023-05-22T08:08:36.907Z,10.15
2023-05-22T08:11:04.741Z,10.10
2023-05-22T08:13:32.194Z,10.20
2023-05-22T08:16:00.317Z,10.63
2023-05-22T08:18:59.016Z,10.30
2023-05-22T08:21:25.816Z,10.35
2023-05-22T08:23:52.467Z,11.05
2023-05-22T08:26:19.137Z,10.02
2023-05-22T08:28:45.975Z,10.50
2023-05-22T08:31:13.370Z,10.00
2023-05-22T08:33:42.927Z,10.13
2023-05-22T08:36:09.597Z,10.50
2023-05-22T08:38:36.985Z,10.57
2023-05-22T08:41:04.794Z,10.10
2023-05-22T08:43:31.459Z,10.77
2023-05-22T08:46:05.071Z,10.18
2023-05-22T08:48:33.030Z,9.98
2023-05-22T08:51:22.561Z,10.00
2023-05-22T08:53:54.017Z,10.50
2023-05-22T08:56:21.158Z,10.35
2023-05-22T08:58:49.885Z,10.13
2023-05-22T09:01:17.151Z,9.77
2023-05-22T09:03:45.409Z,11.18
2023-05-22T09:06:12.629Z,10.15
2023-05-22T09:08:41.207Z,11.10
2023-05-22T09:11:07.988Z,10.52
2023-05-22T09:13:34.687Z,10.00
2023-05-22T09:16:12.162Z,10.07
2023-05-22T09:18:40.120Z,10.77
2023-05-22T09:21:17.765Z,10.07
2023-05-22T09:23:53.880Z,10.82
2023-05-22T09:26:21.592Z,9.90
2023-05-22T09:28:48.280Z,10.45
2023-05-22T09:31:15.283Z,10.00
2023-05-22T09:33:44.265Z,10.35
2023-05-22T09:36:11.115Z,9.90
2023-05-22T09:38:38.780Z,10.32
2023-05-22T09:41:06.073Z,10.52
2023-05-22T09:43:33.802Z,10.30
2023-05-22T09:46:06.780Z,10.65
2023-05-22T09:48:37.233Z,9.32
2023-05-22T09:51:05.067Z,9.75
2023-05-22T09:53:33.154Z,10.43
2023-05-22T09:56:01.323Z,9.75
2023-05-22T09:58:31.280Z,10.10
2023-05-22T10:00:59.225Z,10.13
2023-05-22T10:03:27.036Z,10.50
2023-05-22T10:05:56.179Z,10.20
2023-05-22T10:08:28.988Z,9.07
2023-05-22T10:10:55.815Z,10.63
2023-05-22T10:13:24.058Z,10.60
2023-05-22T10:15:51.278Z,10.98
2023-05-22T10:18:18.188Z,10.13
2023-05-22T10:20:46.987Z,9.88
2023-05-22T10:23:17.973Z,10.07
2023-05-22T10:25:45.717Z,10.55
2023-05-22T10:28:18.194Z,9.50
2023-05-22T10:30:53.667Z,9.88
2023-05-22T10:33:29.398Z,10.45
2023-05-22T10:36:09.583Z,9.90
2023-05-22T10:38:51.916Z,10.50
2023-05-22T10:41:19.132Z,10.82
2023-05-22T10:43:49.665Z,11.27
2023-05-22T10:46:25.908Z,10.48
2023-05-22T10:48:55.036Z,10.65
2023-05-22T10:51:22.823Z,10.02
2023-05-22T10:53:53.679Z,10.35
2023-05-22T10:56:34.213Z,9.75
2023-05-22T10:59:05.120Z,9.43
2023-05-22T11:01:35.992Z,10.18
2023-05-22T11:04:11.800Z,10.00
2023-05-22T11:07:02.212Z,10.45
2023-05-22T11:09:32.848Z,9.82
2023-05-22T11:12:20.453Z,10.20
2023-05-22T11:14:58.299Z,10.10
2023-05-22T11:17:28.757Z,9.95
2023-05-22T11:20:06.622Z,10.55
2023-05-22T11:22:35.856Z,9.82
2023-05-22T11:25:08.640Z,10.55
2023-05-22T11:27:36.502Z,10.88
2023-05-22T11:30:04.107Z,10.60
2023-05-22T11:32:30.902Z,10.60
2023-05-22T11:34:57.998Z,10.68
2023-05-22T11:37:24.785Z,10.60
2023-05-22T11:39:58.732Z,10.63
2023-05-22T11:42:25.561Z,10.83
2023-05-22T11:44:52.342Z,10.93
2023-05-22T11:47:19.056Z,10.48
2023-05-22T11:49:46.260Z,10.10
2023-05-22T11:52:13.234Z,10.55
2023-05-22T11:54:39.908Z,11.32
2023-05-22T11:57:07.906Z,11.13
2023-05-22T11:59:34.788Z,10.38
2023-05-22T12:02:01.503Z,11.07
2023-05-22T12:04:28.204Z,10.52
2023-05-22T12:06:55.444Z,11.23
2023-05-22T12:09:22.215Z,11.05
2023-05-22T12:11:49.393Z,10.40
2023-05-22T12:14:16.219Z,10.30
2023-05-22T12:16:44.409Z,11.43
2023-05-22T12:19:12.341Z,11.35
2023-05-22T12:21:40.869Z,10.52
2023-05-22T12:24:08.144Z,10.63
2023-05-22T12:26:36.276Z,10.75
2023-05-22T12:29:04.548Z,11.35
2023-05-22T12:31:36.282Z,11.35
2023-05-22T12:34:06.642Z,10.75
2023-05-22T12:36:34.903Z,10.55
2023-05-22T12:39:01.836Z,11.45
2023-05-22T12:41:28.492Z,10.40
2023-05-22T12:43:55.137Z,11.68
2023-05-22T12:46:21.713Z,10.93
2023-05-22T12:48:48.310Z,10.73
2023-05-22T12:51:14.966Z,10.50
2023-05-22T12:53:41.505Z,10.93
2023-05-22T12:56:08.056Z,10.88
2023-05-22T12:58:34.649Z,11.15
2023-05-22T13:01:01.381Z,10.85
2023-05-22T13:03:27.998Z,11.35
2023-05-22T13:05:54.616Z,11.57
2023-05-22T13:08:22.228Z,11.00
2023-05-22T13:10:48.884Z,10.98
2023-05-22T13:13:15.531Z,10.90
2023-05-22T13:15:42.369Z,11.50
2023-05-22T13:18:09.264Z,11.93
2023-05-22T13:20:38.977Z,11.95
2023-05-22T13:23:05.883Z,12.60
2023-05-22T13:25:32.519Z,11.65
2023-05-22T13:27:59.919Z,11.77
2023-05-22T13:30:26.775Z,11.82
2023-05-22T13:32:53.621Z,11.30
2023-05-22T13:35:20.617Z,11.75
2023-05-22T13:37:47.403Z,12.13
2023-05-22T13:40:15.388Z,11.90
2023-05-22T13:42:42.315Z,11.40
2023-05-22T13:45:10.303Z,11.90
2023-05-22T13:47:37.102Z,11.55
2023-05-22T13:50:05.571Z,11.32
2023-05-22T13:52:32.216Z,10.77
2023-05-22T13:55:00.045Z,11.80
2023-05-22T13:57:26.686Z,10.90
2023-05-22T13:59:56.141Z,10.98
2023-05-22T14:02:22.895Z,10.50
2023-05-22T14:04:52.039Z,10.23
2023-05-22T14:07:18.753Z,10.60
2023-05-22T14:09:45.682Z,10.15
2023-05-22T14:12:12.543Z,9.60
2023-05-22T14:14:39.248Z,9.98
2023-05-22T14:17:08.693Z,10.57
2023-05-22T14:19:35.831Z,10.80
2023-05-22T14:22:02.587Z,10.82
2023-05-22T14:24:29.357Z,10.52
2023-05-22T14:26:58.099Z,10.73
2023-05-22T14:29:25.878Z,10.27
2023-05-22T14:32:01.039Z,10.00
2023-05-22T14:34:30.132Z,10.50
2023-05-22T14:36:58.142Z,10.93
2023-05-22T14:39:25.775Z,10.63
2023-05-22T14:41:53.652Z,11.10
2023-05-22T14:44:22.365Z,10.88
2023-05-22T14:46:50.766Z,9.50
2023-05-22T14:49:17.629Z,10.60
2023-05-22T14:51:48.163Z,9.95
2023-05-22T14:54:18.118Z,10.00
2023-05-22T14:56:47.762Z,10.63
2023-05-22T14:59:14.477Z,10.65
2023-05-22T15:01:41.348Z,9.95
2023-05-22T15:04:08.957Z,9.60
2023-05-22T15:06:36.879Z,9.98
2023-05-22T15:09:03.675Z,9.95
2023-05-22T15:11:30.397Z,9.68
2023-05-22T15:13:57.076Z,8.95
2023-05-22T15:16:25.459Z,8.90
2023-05-22T15:18:52.157Z,8.73
2023-05-22T15:21:18.965Z,9.23
2023-05-22T15:23:45.573Z,9.98
2023-05-22T15:26:12.257Z,11.43
2023-05-22T15:28:38.850Z,12.30
2023-05-22T15:31:05.593Z,12.40
2023-05-22T15:33:33.929Z,12.88
2023-05-22T15:36:00.532Z,14.52
2023-05-22T15:38:28.208Z,11.48
2023-05-22T15:40:54.921Z,12.20
2023-05-22T15:43:21.502Z,14.65
2023-05-22T15:45:48.941Z,16.63
2023-05-22T15:48:16.672Z,15.73
2023-05-22T15:50:43.392Z,14.45
2023-05-22T15:53:10.332Z,14.32
2023-05-22T15:55:38.427Z,13.50
2023-05-22T15:58:07.601Z,13.40
2023-05-22T16:00:38.658Z,11.02
2023-05-22T16:03:08.976Z,8.73
2023-05-22T16:05:40.336Z,8.38
2023-05-22T16:08:10.074Z,7.65
2023-05-22T16:10:37.263Z,7.03
2023-05-22T16:13:05.274Z,6.38
2023-05-22T16:15:32.056Z,5.43
2023-05-22T16:17:58.667Z,6.03
2023-05-22T16:20:25.259Z,6.18
2023-05-22T16:22:51.997Z,7.03
2023-05-22T16:25:18.732Z,6.68
2023-05-22T16:27:45.495Z,7.45
2023-05-22T16:30:14.747Z,6.25
2023-05-22T16:32:41.387Z,6.03
2023-05-22T16:35:09.388Z,6.32
2023-05-22T16:37:36.219Z,6.55
2023-05-22T16:40:03.378Z,6.88
2023-05-22T16:42:29.979Z,7.45
2023-05-22T16:44:56.668Z,7.05
2023-05-22T16:47:23.438Z,7.47
2023-05-22T16:49:50.443Z,7.35
2023-05-22T16:52:18.173Z,8.40
2023-05-22T16:54:44.759Z,8.48
2023-05-22T16:57:11.331Z,8.70
2023-05-22T16:59:38.123Z,9.27
2023-05-22T17:02:04.968Z,9.50
2023-05-22T17:04:31.607Z,9.88
2023-05-22T17:06:58.175Z,10.18
2023-05-22T17:09:24.856Z,10.77
2023-05-22T17:11:51.509Z,9.90
2023-05-22T17:14:18.205Z,10.32
2023-05-22T17:16:44.930Z,10.90
2023-05-22T17:19:11.764Z,10.98
2023-05-22T17:21:38.484Z,10.88
2023-05-22T17:24:05.290Z,11.02
2023-05-22T17:26:33.533Z,11.15
2023-05-22T17:29:00.772Z,11.77
2023-05-22T17:31:27.426Z,12.10
2023-05-22T17:33:54.297Z,11.45
2023-05-22T17:36:20.984Z,11.07
2023-05-22T17:38:50.430Z,12.43
2023-05-22T17:41:17.244Z,12.20
2023-05-22T17:43:43.877Z,11.23
2023-05-22T17:46:10.634Z,9.80
2023-05-22T17:48:37.346Z,9.98
2023-05-22T17:51:04.186Z,10.25
2023-05-22T17:53:34.808Z,10.15
2023-05-22T17:56:05.212Z,9.88
2023-05-22T17:58:32.544Z,9.57
2023-05-22T18:00:59.429Z,9.57
2023-05-22T18:03:26.663Z,9.93
2023-05-22T18:05:53.598Z,10.30
2023-05-22T18:08:21.314Z,11.32
2023-05-22T18:10:48.859Z,12.20
2023-05-22T18:13:15.572Z,12.55
2023-05-22T18:15:42.313Z,12.82
2023-05-22T18:18:11.387Z,11.93
2023-05-22T18:20:39.863Z,12.88
2023-05-22T18:23:06.636Z,11.95
2023-05-22T18:25:35.661Z,13.15
2023-05-22T18:28:04.308Z,11.98
2023-05-22T18:30:32.198Z,11.57
2023-05-22T18:32:58.865Z,11.45
2023-05-22T18:35:25.659Z,13.25
2023-05-22T18:37:52.315Z,14.63
2023-05-22T18:40:18.922Z,14.13
2023-05-22T18:42:45.496Z,15.35
2023-05-22T18:45:12.310Z,14.05
2023-05-22T18:47:39.276Z,13.73
2023-05-22T18:50:06.750Z,12.63
2023-05-22T18:52:33.355Z,11.13
2023-05-22T18:54:59.913Z,11.15
2023-05-22T18:57:26.582Z,10.73
2023-05-22T18:59:53.155Z,12.05
2023-05-22T19:02:21.708Z,10.80
2023-05-22T19:04:51.532Z,12.55
2023-05-22T19:07:18.277Z,10.80
2023-05-22T19:09:44.908Z,11.95
2023-05-22T19:12:11.476Z,12.82
2023-05-22T19:14:38.086Z,12.68
2023-05-22T19:17:05.150Z,13.05
2023-05-22T19:19:31.897Z,14.55
2023-05-22T19:21:58.586Z,12.48
2023-05-22T19:24:26.489Z,14.55
2023-05-22T19:26:53.130Z,13.10
2023-05-22T19:29:19.703Z,14.10
2023-05-22T19:31:46.373Z,13.95
2023-05-22T19:34:12.933Z,13.57
2023-05-22T19:36:39.586Z,14.95
2023-05-22T19:39:06.264Z,13.82
2023-05-22T19:41:32.912Z,14.30
2023-05-22T19:43:59.524Z,14.88
2023-05-22T19:46:26.420Z,15.00
2023-05-22T19:48:53.667Z,14.98
2023-05-22T19:51:20.421Z,13.77
2023-05-22T19:53:47.035Z,15.30
2023-05-22T19:56:13.652Z,15.32
2023-05-22T19:58:40.252Z,16.30
2023-05-22T20:01:06.948Z,14.95
2023-05-22T20:03:33.937Z,15.10
2023-05-22T20:06:01.001Z,14.85
2023-05-22T20:08:28.399Z,13.82
2023-05-22T20:10:54.992Z,13.82
2023-05-22T20:13:21.570Z,15.30
2023-05-22T20:15:49.981Z,14.63
2023-05-22T20:18:16.926Z,14.60
2023-05-22T20:20:43.776Z,13.60
2023-05-22T20:23:10.595Z,13.85
2023-05-22T20:25:37.670Z,12.80
2023-05-22T20:28:04.954Z,11.65
2023-05-22T20:30:32.421Z,12.23
2023-05-22T20:32:59.084Z,11.45
2023-05-22T20:35:26.414Z,10.45
2023-05-22T20:37:53.360Z,10.13
2023-05-22T20:40:20.202Z,10.10
2023-05-22T20:42:47.421Z,10.73
2023-05-22T20:45:16.096Z,13.93
2023-05-22T20:47:43.093Z,15.40
2023-05-22T20:50:10.082Z,16.77
2023-05-22T20:52:39.641Z,16.67
2023-05-22T20:55:07.256Z,17.25
2023-05-22T20:57:34.762Z,17.75
2023-05-22T21:00:01.556Z,18.83
2023-05-22T21:02:28.241Z,19.00
2023-05-22T21:04:54.879Z,17.67
2023-05-22T21:07:21.554Z,20.90
2023-05-22T21:09:48.116Z,19.75
2023-05-22T21:12:14.727Z,20.30
2023-05-22T21:14:43.364Z,20.10
2023-05-22T21:17:10.601Z,23.88
2023-05-22T21:19:37.369Z,21.85
2023-05-22T21:22:04.247Z,21.98
2023-05-22T21:24:32.309Z,26.52
2023-05-22T21:26:59.080Z,25.65
2023-05-22T21:29:25.847Z,26.30
2023-05-22T21:31:52.487Z,27.52
2023-05-22T21:34:19.400Z,29.95
2023-05-22T21:36:46.026Z,31.25
2023-05-22T21:39:12.619Z,34.92
2023-05-22T21:41:39.171Z,34.70
2023-05-22T21:44:05.912Z,34.00
2023-05-22T21:46:32.535Z,39.30
2023-05-22T21:48:59.798Z,40.30
2023-05-22T21:51:26.394Z,41.67
2023-05-22T21:53:52.951Z,41.08
2023-05-22T21:56:19.520Z,40.38
2023-05-22T21:58:46.557Z,44.60
2023-05-22T22:01:13.441Z,42.35
2023-05-22T22:03:40.288Z,46.08
2023-05-22T22:06:07.126Z,43.25
2023-05-22T22:08:33.836Z,44.80
2023-05-22T22:11:00.477Z,40.53
2023-05-22T22:13:27.042Z,47.33
2023-05-22T22:15:53.665Z,48.13
2023-05-22T22:18:20.429Z,40.78
2023-05-22T22:20:49.943Z,52.00
2023-05-22T22:23:16.927Z,49.15
2023-05-22T22:25:43.560Z,45.97
2023-05-22T22:28:10.314Z,48.15
2023-05-22T22:30:36.877Z,43.42
2023-05-22T22:33:03.557Z,42.28
2023-05-22T22:35:30.612Z,43.65
2023-05-22T22:37:57.300Z,50.67
2023-05-22T22:40:25.989Z,48.20
2023-05-22T22:42:53.319Z,46.08
2023-05-22T22:45:19.979Z,53.08
2023-05-22T22:47:47.329Z,44.13
2023-05-22T22:50:14.043Z,47.58
2023-05-22T22:52:45.364Z,51.85
2023-05-22T22:55:12.340Z,49.90
2023-05-22T22:57:39.163Z,45.83
2023-05-22T23:00:06.469Z,43.92
2023-05-22T23:02:33.136Z,49.83
2023-05-22T23:04:59.892Z,46.88
2023-05-22T23:07:28.020Z,48.55
2023-05-22T23:09:54.638Z,51.75
2023-05-22T23:12:21.376Z,50.50
2023-05-22T23:14:47.918Z,47.40
2023-05-22T23:17:14.465Z,51.42
2023-05-22T23:19:41.064Z,55.17
2023-05-22T23:22:07.952Z,51.95
2023-05-22T23:24:34.550Z,53.05
2023-05-22T23:27:01.325Z,51.63
2023-05-22T23:29:27.913Z,51.92
2023-05-22T23:31:55.262Z,50.95
2023-05-22T23:34:21.985Z,46.47
2023-05-22T23:36:48.834Z,54.35
2023-05-22T23:39:15.418Z,50.50
2023-05-22T23:41:42.143Z,46.65
2023-05-22T23:44:08.773Z,49.15
2023-05-22T23:46:37.131Z,45.75
2023-05-22T23:49:03.790Z,46.95
2023-05-22T23:51:31.225Z,47.15
2023-05-22T23:53:57.862Z,45.38
2023-05-22T23:56:24.472Z,41.72
2023-05-22T23:58:51.066Z,39.90
